sensor_id;sensor_type;location;lat;lon;timestamp;temperature;humidity
68217;DHT22;55037;52.354;4.992;2023-09-19T00:00:48;26.10;54.00
68217;DHT22;55037;52.354;4.992;2023-09-19T00:03:16;26.10;54.00
68217;DHT22;55037;52.354;4.992;2023-09-19T00:05:44;26.10;53.90
68217;DHT22;55037;52.354;4.992;2023-09-19T00:08:13;26.10;53.70
68217;DHT22;55037;52.354;4.992;2023-09-19T00:10:42;26.10;53.70
68217;DHT22;55037;52.354;4.992;2023-09-19T00:13:13;26.10;53.50
68217;DHT22;55037;52.354;4.992;2023-09-19T00:15:47;26.10;53.50
68217;DHT22;55037;52.354;4.992;2023-09-19T00:18:19;26.10;53.40
68217;DHT22;55037;52.354;4.992;2023-09-19T00:20:48;26.10;54.40
68217;DHT22;55037;52.354;4.992;2023-09-19T00:23:17;26.10;53.20
68217;DHT22;55037;52.354;4.992;2023-09-19T00:25:44;26.10;53.10
68217;DHT22;55037;52.354;4.992;2023-09-19T00:28:12;26.10;53.00
68217;DHT22;55037;52.354;4.992;2023-09-19T00:30:42;26.10;53.00
68217;DHT22;55037;52.354;4.992;2023-09-19T00:33:11;26.10;52.90
68217;DHT22;55037;52.354;4.992;2023-09-19T00:35:51;26.10;52.90
68217;DHT22;55037;52.354;4.992;2023-09-19T00:38:19;26.10;52.80
68217;DHT22;55037;52.354;4.992;2023-09-19T00:40:54;26.10;52.80
68217;DHT22;55037;52.354;4.992;2023-09-19T00:43:27;26.10;52.60
68217;DHT22;55037;52.354;4.992;2023-09-19T00:45:56;26.10;52.60
68217;DHT22;55037;52.354;4.992;2023-09-19T00:48:25;26.10;52.50
68217;DHT22;55037;52.354;4.992;2023-09-19T00:50:58;26.00;52.30
68217;DHT22;55037;52.354;4.992;2023-09-19T00:53:26;26.10;52.20
68217;DHT22;55037;52.354;4.992;2023-09-19T00:55:55;26.10;52.10
68217;DHT22;55037;52.354;4.992;2023-09-19T00:58:23;26.10;52.00
68217;DHT22;55037;52.354;4.992;2023-09-19T01:00:51;26.00;51.80
68217;DHT22;55037;52.354;4.992;2023-09-19T01:03:18;26.10;51.80
68217;DHT22;55037;52.354;4.992;2023-09-19T01:05:47;26.10;51.70
68217;DHT22;55037;52.354;4.992;2023-09-19T01:08:15;26.00;51.50
68217;DHT22;55037;52.354;4.992;2023-09-19T01:11:15;26.10;51.50
68217;DHT22;55037;52.354;4.992;2023-09-19T01:17:25;26.10;51.40
68217;DHT22;55037;52.354;4.992;2023-09-19T01:29:44;26.00;51.00
68217;DHT22;55037;52.354;4.992;2023-09-19T01:32:19;26.00;51.00
68217;DHT22;55037;52.354;4.992;2023-09-19T01:34:57;25.90;50.80
68217;DHT22;55037;52.354;4.992;2023-09-19T01:37:32;26.00;50.70
68217;DHT22;55037;52.354;4.992;2023-09-19T01:40:03;26.00;50.70
68217;DHT22;55037;52.354;4.992;2023-09-19T01:47:54;26.00;50.50
68217;DHT22;55037;52.354;4.992;2023-09-19T01:50:30;26.00;50.40
68217;DHT22;55037;52.354;4.992;2023-09-19T01:53:22;26.00;50.30
68217;DHT22;55037;52.354;4.992;2023-09-19T01:55:51;26.00;50.30
68217;DHT22;55037;52.354;4.992;2023-09-19T01:58:46;25.90;50.20
68217;DHT22;55037;52.354;4.992;2023-09-19T02:01:19;25.90;50.20
68217;DHT22;55037;52.354;4.992;2023-09-19T02:03:48;25.90;50.20
68217;DHT22;55037;52.354;4.992;2023-09-19T02:06:18;25.90;50.10
68217;DHT22;55037;52.354;4.992;2023-09-19T02:08:46;25.90;50.10
68217;DHT22;55037;52.354;4.992;2023-09-19T02:11:14;25.90;50.00
68217;DHT22;55037;52.354;4.992;2023-09-19T02:13:43;25.90;50.00
68217;DHT22;55037;52.354;4.992;2023-09-19T02:16:11;25.90;50.00
68217;DHT22;55037;52.354;4.992;2023-09-19T02:18:39;25.90;50.10
68217;DHT22;55037;52.354;4.992;2023-09-19T02:21:08;25.90;50.10
68217;DHT22;55037;52.354;4.992;2023-09-19T02:23:38;25.90;50.10
68217;DHT22;55037;52.354;4.992;2023-09-19T02:26:06;25.90;50.10
68217;DHT22;55037;52.354;4.992;2023-09-19T02:28:34;25.90;50.10
68217;DHT22;55037;52.354;4.992;2023-09-19T02:31:02;25.90;50.20
68217;DHT22;55037;52.354;4.992;2023-09-19T02:33:35;25.90;50.20
68217;DHT22;55037;52.354;4.992;2023-09-19T02:36:03;25.90;50.10
68217;DHT22;55037;52.354;4.992;2023-09-19T02:38:33;25.90;50.00
68217;DHT22;55037;52.354;4.992;2023-09-19T02:41:00;25.90;50.00
68217;DHT22;55037;52.354;4.992;2023-09-19T02:43:28;25.90;50.00
68217;DHT22;55037;52.354;4.992;2023-09-19T02:45:56;25.90;50.00
68217;DHT22;55037;52.354;4.992;2023-09-19T02:48:24;25.90;50.00
68217;DHT22;55037;52.354;4.992;2023-09-19T02:50:52;25.90;49.90
68217;DHT22;55037;52.354;4.992;2023-09-19T02:53:20;25.90;49.90
68217;DHT22;55037;52.354;4.992;2023-09-19T02:55:47;25.90;49.80
68217;DHT22;55037;52.354;4.992;2023-09-19T02:58:15;25.90;49.80
68217;DHT22;55037;52.354;4.992;2023-09-19T03:00:43;25.90;50.00
68217;DHT22;55037;52.354;4.992;2023-09-19T03:03:15;25.90;49.80
68217;DHT22;55037;52.354;4.992;2023-09-19T03:05:46;25.90;49.80
68217;DHT22;55037;52.354;4.992;2023-09-19T03:08:16;25.90;49.80
68217;DHT22;55037;52.354;4.992;2023-09-19T03:10:47;25.90;49.80
68217;DHT22;55037;52.354;4.992;2023-09-19T03:13:16;25.90;49.70
68217;DHT22;55037;52.354;4.992;2023-09-19T03:15:43;25.80;49.70
68217;DHT22;55037;52.354;4.992;2023-09-19T03:18:14;25.90;49.70
68217;DHT22;55037;52.354;4.992;2023-09-19T03:20:42;25.80;49.70
68217;DHT22;55037;52.354;4.992;2023-09-19T03:23:09;25.80;49.70
68217;DHT22;55037;52.354;4.992;2023-09-19T03:25:37;25.80;49.60
68217;DHT22;55037;52.354;4.992;2023-09-19T03:28:05;25.80;50.60
68217;DHT22;55037;52.354;4.992;2023-09-19T03:30:35;25.80;49.60
68217;DHT22;55037;52.354;4.992;2023-09-19T03:33:04;25.80;49.60
68217;DHT22;55037;52.354;4.992;2023-09-19T03:35:34;25.80;49.50
68217;DHT22;55037;52.354;4.992;2023-09-19T03:38:02;25.80;49.50
68217;DHT22;55037;52.354;4.992;2023-09-19T03:40:30;25.80;49.40
68217;DHT22;55037;52.354;4.992;2023-09-19T03:43:00;25.80;49.50
68217;DHT22;55037;52.354;4.992;2023-09-19T03:45:28;25.80;50.50
68217;DHT22;55037;52.354;4.992;2023-09-19T03:47:55;25.80;49.40
68217;DHT22;55037;52.354;4.992;2023-09-19T03:50:24;25.80;49.40
68217;DHT22;55037;52.354;4.992;2023-09-19T03:52:57;25.80;49.30
68217;DHT22;55037;52.354;4.992;2023-09-19T03:55:24;25.80;49.20
68217;DHT22;55037;52.354;4.992;2023-09-19T03:57:52;25.80;49.30
68217;DHT22;55037;52.354;4.992;2023-09-19T04:00:20;25.80;49.20
68217;DHT22;55037;52.354;4.992;2023-09-19T04:02:49;25.80;49.20
68217;DHT22;55037;52.354;4.992;2023-09-19T04:05:16;25.80;49.20
68217;DHT22;55037;52.354;4.992;2023-09-19T04:07:45;25.80;49.20
68217;DHT22;55037;52.354;4.992;2023-09-19T04:10:13;25.80;49.20
68217;DHT22;55037;52.354;4.992;2023-09-19T04:12:55;25.70;49.10
68217;DHT22;55037;52.354;4.992;2023-09-19T04:15:23;25.80;49.10
68217;DHT22;55037;52.354;4.992;2023-09-19T04:17:53;25.70;49.00
68217;DHT22;55037;52.354;4.992;2023-09-19T04:20:21;25.70;49.00
68217;DHT22;55037;52.354;4.992;2023-09-19T04:22:50;25.70;50.10
68217;DHT22;55037;52.354;4.992;2023-09-19T04:25:18;25.70;49.00
68217;DHT22;55037;52.354;4.992;2023-09-19T04:27:46;25.70;49.00
68217;DHT22;55037;52.354;4.992;2023-09-19T04:30:13;25.70;48.90
68217;DHT22;55037;52.354;4.992;2023-09-19T04:32:41;25.70;48.90
68217;DHT22;55037;52.354;4.992;2023-09-19T04:35:10;25.70;48.90
68217;DHT22;55037;52.354;4.992;2023-09-19T04:37:39;25.70;48.90
68217;DHT22;55037;52.354;4.992;2023-09-19T04:40:08;25.70;48.90
68217;DHT22;55037;52.354;4.992;2023-09-19T04:42:45;25.70;48.90
68217;DHT22;55037;52.354;4.992;2023-09-19T04:45:13;25.70;48.90
68217;DHT22;55037;52.354;4.992;2023-09-19T04:47:40;25.70;48.90
68217;DHT22;55037;52.354;4.992;2023-09-19T04:50:11;25.70;48.90
68217;DHT22;55037;52.354;4.992;2023-09-19T04:52:40;25.70;48.90
68217;DHT22;55037;52.354;4.992;2023-09-19T04:55:10;25.70;48.90
68217;DHT22;55037;52.354;4.992;2023-09-19T04:57:40;25.70;49.00
68217;DHT22;55037;52.354;4.992;2023-09-19T05:00:08;25.70;48.90
68217;DHT22;55037;52.354;4.992;2023-09-19T05:02:39;25.70;48.90
68217;DHT22;55037;52.354;4.992;2023-09-19T05:05:08;25.70;48.80
68217;DHT22;55037;52.354;4.992;2023-09-19T05:07:35;25.70;48.80
68217;DHT22;55037;52.354;4.992;2023-09-19T05:10:03;25.70;48.90
68217;DHT22;55037;52.354;4.992;2023-09-19T05:12:35;25.70;48.90
68217;DHT22;55037;52.354;4.992;2023-09-19T05:15:06;25.70;48.90
68217;DHT22;55037;52.354;4.992;2023-09-19T05:17:35;25.70;49.00
68217;DHT22;55037;52.354;4.992;2023-09-19T05:20:03;25.70;48.90
68217;DHT22;55037;52.354;4.992;2023-09-19T05:22:42;25.60;48.80
68217;DHT22;55037;52.354;4.992;2023-09-19T05:25:10;25.70;48.90
68217;DHT22;55037;52.354;4.992;2023-09-19T05:27:38;25.70;48.90
68217;DHT22;55037;52.354;4.992;2023-09-19T05:30:06;25.70;49.00
68217;DHT22;55037;52.354;4.992;2023-09-19T05:32:34;25.70;48.90
68217;DHT22;55037;52.354;4.992;2023-09-19T05:35:01;25.70;48.90
68217;DHT22;55037;52.354;4.992;2023-09-19T05:37:28;25.70;48.90
68217;DHT22;55037;52.354;4.992;2023-09-19T05:39:56;25.70;48.90
68217;DHT22;55037;52.354;4.992;2023-09-19T05:42:24;25.70;49.00
68217;DHT22;55037;52.354;4.992;2023-09-19T05:44:52;25.60;48.90
68217;DHT22;55037;52.354;4.992;2023-09-19T05:47:19;25.60;48.90
68217;DHT22;55037;52.354;4.992;2023-09-19T05:49:47;25.60;48.90
68217;DHT22;55037;52.354;4.992;2023-09-19T05:52:16;25.60;48.90
68217;DHT22;55037;52.354;4.992;2023-09-19T05:54:44;25.60;48.90
68217;DHT22;55037;52.354;4.992;2023-09-19T05:57:12;25.70;48.90
68217;DHT22;55037;52.354;4.992;2023-09-19T05:59:39;25.60;48.80
68217;DHT22;55037;52.354;4.992;2023-09-19T06:02:07;25.60;48.80
68217;DHT22;55037;52.354;4.992;2023-09-19T06:04:34;25.60;48.90
68217;DHT22;55037;52.354;4.992;2023-09-19T06:07:02;25.60;49.00
68217;DHT22;55037;52.354;4.992;2023-09-19T06:09:30;25.60;48.90
68217;DHT22;55037;52.354;4.992;2023-09-19T06:11:59;25.60;48.90
68217;DHT22;55037;52.354;4.992;2023-09-19T06:14:30;25.60;48.90
68217;DHT22;55037;52.354;4.992;2023-09-19T06:16:58;25.70;48.90
68217;DHT22;55037;52.354;4.992;2023-09-19T06:19:25;25.70;48.90
68217;DHT22;55037;52.354;4.992;2023-09-19T06:21:53;25.60;48.80
68217;DHT22;55037;52.354;4.992;2023-09-19T06:24:23;25.70;48.90
68217;DHT22;55037;52.354;4.992;2023-09-19T06:26:50;25.60;48.80
68217;DHT22;55037;52.354;4.992;2023-09-19T06:29:19;25.70;48.90
68217;DHT22;55037;52.354;4.992;2023-09-19T06:31:47;25.70;48.80
68217;DHT22;55037;52.354;4.992;2023-09-19T06:34:15;25.70;48.90
68217;DHT22;55037;52.354;4.992;2023-09-19T06:36:43;25.70;48.90
68217;DHT22;55037;52.354;4.992;2023-09-19T06:39:10;25.70;48.90
68217;DHT22;55037;52.354;4.992;2023-09-19T06:41:38;25.70;48.90
68217;DHT22;55037;52.354;4.992;2023-09-19T06:44:10;25.70;48.90
68217;DHT22;55037;52.354;4.992;2023-09-19T06:46:37;25.70;48.20
68217;DHT22;55037;52.354;4.992;2023-09-19T06:49:08;25.70;47.80
68217;DHT22;55037;52.354;4.992;2023-09-19T06:51:37;25.60;47.60
68217;DHT22;55037;52.354;4.992;2023-09-19T06:54:05;25.60;47.60
68217;DHT22;55037;52.354;4.992;2023-09-19T06:56:32;25.60;47.40
68217;DHT22;55037;52.354;4.992;2023-09-19T06:59:00;25.50;47.20
68217;DHT22;55037;52.354;4.992;2023-09-19T07:01:29;25.50;47.20
68217;DHT22;55037;52.354;4.992;2023-09-19T07:03:59;25.50;47.20
68217;DHT22;55037;52.354;4.992;2023-09-19T07:06:26;25.50;48.20
68217;DHT22;55037;52.354;4.992;2023-09-19T07:08:53;25.50;47.20
68217;DHT22;55037;52.354;4.992;2023-09-19T07:11:22;25.40;47.20
68217;DHT22;55037;52.354;4.992;2023-09-19T07:13:49;25.40;47.00
68217;DHT22;55037;52.354;4.992;2023-09-19T07:16:17;25.40;47.10
68217;DHT22;55037;52.354;4.992;2023-09-19T07:18:55;25.40;47.00
68217;DHT22;55037;52.354;4.992;2023-09-19T07:21:24;25.40;47.30
68217;DHT22;55037;52.354;4.992;2023-09-19T07:23:51;25.40;47.30
68217;DHT22;55037;52.354;4.992;2023-09-19T07:26:19;25.40;47.20
68217;DHT22;55037;52.354;4.992;2023-09-19T07:28:47;25.40;47.20
68217;DHT22;55037;52.354;4.992;2023-09-19T07:31:14;25.40;47.20
68217;DHT22;55037;52.354;4.992;2023-09-19T07:33:42;25.40;47.30
68217;DHT22;55037;52.354;4.992;2023-09-19T07:36:17;25.40;47.40
68217;DHT22;55037;52.354;4.992;2023-09-19T07:38:45;25.40;47.50
68217;DHT22;55037;52.354;4.992;2023-09-19T07:41:12;25.30;47.40
68217;DHT22;55037;52.354;4.992;2023-09-19T07:43:39;25.40;47.60
68217;DHT22;55037;52.354;4.992;2023-09-19T07:46:08;25.40;47.60
68217;DHT22;55037;52.354;4.992;2023-09-19T07:48:39;25.40;47.60
68217;DHT22;55037;52.354;4.992;2023-09-19T07:51:08;25.50;47.80
68217;DHT22;55037;52.354;4.992;2023-09-19T07:53:36;25.50;47.70
68217;DHT22;55037;52.354;4.992;2023-09-19T07:56:08;25.50;47.80
68217;DHT22;55037;52.354;4.992;2023-09-19T07:58:39;25.50;47.80
68217;DHT22;55037;52.354;4.992;2023-09-19T08:01:10;25.40;47.50
68217;DHT22;55037;52.354;4.992;2023-09-19T08:03:37;25.50;47.50
68217;DHT22;55037;52.354;4.992;2023-09-19T08:06:09;25.40;47.50
68217;DHT22;55037;52.354;4.992;2023-09-19T08:08:37;25.40;47.50
68217;DHT22;55037;52.354;4.992;2023-09-19T08:11:05;25.40;47.50
68217;DHT22;55037;52.354;4.992;2023-09-19T08:13:39;25.40;47.40
68217;DHT22;55037;52.354;4.992;2023-09-19T08:16:10;25.40;47.40
68217;DHT22;55037;52.354;4.992;2023-09-19T08:18:38;25.40;48.50
68217;DHT22;55037;52.354;4.992;2023-09-19T08:21:08;25.40;47.40
68217;DHT22;55037;52.354;4.992;2023-09-19T08:23:38;25.40;47.50
68217;DHT22;55037;52.354;4.992;2023-09-19T08:26:06;25.40;47.60
68217;DHT22;55037;52.354;4.992;2023-09-19T08:28:35;25.40;47.50
68217;DHT22;55037;52.354;4.992;2023-09-19T08:31:04;25.40;47.70
68217;DHT22;55037;52.354;4.992;2023-09-19T08:33:36;25.40;47.70
68217;DHT22;55037;52.354;4.992;2023-09-19T08:36:05;25.40;47.70
68217;DHT22;55037;52.354;4.992;2023-09-19T08:38:34;25.40;47.70
68217;DHT22;55037;52.354;4.992;2023-09-19T08:41:07;25.40;47.60
68217;DHT22;55037;52.354;4.992;2023-09-19T08:43:35;25.30;48.60
68217;DHT22;55037;52.354;4.992;2023-09-19T08:46:15;25.30;47.50
68217;DHT22;55037;52.354;4.992;2023-09-19T08:48:47;25.40;47.50
68217;DHT22;55037;52.354;4.992;2023-09-19T08:51:41;25.40;47.60
68217;DHT22;55037;52.354;4.992;2023-09-19T08:54:08;25.40;47.60
68217;DHT22;55037;52.354;4.992;2023-09-19T08:56:41;25.40;47.60
68217;DHT22;55037;52.354;4.992;2023-09-19T08:59:10;25.40;47.50
68217;DHT22;55037;52.354;4.992;2023-09-19T09:01:39;25.40;48.50
68217;DHT22;55037;52.354;4.992;2023-09-19T09:04:09;25.40;47.40
68217;DHT22;55037;52.354;4.992;2023-09-19T09:06:41;25.40;47.40
68217;DHT22;55037;52.354;4.992;2023-09-19T09:09:10;25.40;47.40
68217;DHT22;55037;52.354;4.992;2023-09-19T09:11:39;25.50;47.50
68217;DHT22;55037;52.354;4.992;2023-09-19T09:14:07;25.40;47.40
68217;DHT22;55037;52.354;4.992;2023-09-19T09:16:35;25.40;47.40
68217;DHT22;55037;52.354;4.992;2023-09-19T09:19:02;25.40;47.30
68217;DHT22;55037;52.354;4.992;2023-09-19T09:21:30;25.40;47.30
68217;DHT22;55037;52.354;4.992;2023-09-19T09:24:28;25.30;47.20
68217;DHT22;55037;52.354;4.992;2023-09-19T09:26:57;25.40;47.20
68217;DHT22;55037;52.354;4.992;2023-09-19T09:29:57;25.40;47.30
68217;DHT22;55037;52.354;4.992;2023-09-19T09:32:30;25.40;47.30
68217;DHT22;55037;52.354;4.992;2023-09-19T09:35:03;25.40;47.20
68217;DHT22;55037;52.354;4.992;2023-09-19T09:37:36;25.40;47.20
68217;DHT22;55037;52.354;4.992;2023-09-19T09:40:06;25.40;47.30
68217;DHT22;55037;52.354;4.992;2023-09-19T09:42:47;25.40;47.50
68217;DHT22;55037;52.354;4.992;2023-09-19T09:45:17;25.40;47.70
68217;DHT22;55037;52.354;4.992;2023-09-19T09:47:49;25.50;47.80
68217;DHT22;55037;52.354;4.992;2023-09-19T09:50:33;25.50;47.60
68217;DHT22;55037;52.354;4.992;2023-09-19T09:53:29;25.50;47.50
68217;DHT22;55037;52.354;4.992;2023-09-19T09:58:38;25.50;47.40
68217;DHT22;55037;52.354;4.992;2023-09-19T10:01:16;25.50;47.50
68217;DHT22;55037;52.354;4.992;2023-09-19T10:03:45;25.50;48.60
68217;DHT22;55037;52.354;4.992;2023-09-19T10:06:17;25.50;47.40
68217;DHT22;55037;52.354;4.992;2023-09-19T10:09:05;25.50;47.30
68217;DHT22;55037;52.354;4.992;2023-09-19T10:11:43;25.50;47.30
68217;DHT22;55037;52.354;4.992;2023-09-19T10:14:17;25.50;47.30
68217;DHT22;55037;52.354;4.992;2023-09-19T10:16:53;25.50;47.30
68217;DHT22;55037;52.354;4.992;2023-09-19T10:19:30;25.50;47.30
68217;DHT22;55037;52.354;4.992;2023-09-19T10:22:02;25.50;47.30
68217;DHT22;55037;52.354;4.992;2023-09-19T10:24:30;25.50;47.30
68217;DHT22;55037;52.354;4.992;2023-09-19T10:26:59;25.50;47.30
68217;DHT22;55037;52.354;4.992;2023-09-19T10:29:28;25.50;47.20
68217;DHT22;55037;52.354;4.992;2023-09-19T10:31:59;25.50;48.20
68217;DHT22;55037;52.354;4.992;2023-09-19T10:34:29;25.50;47.20
68217;DHT22;55037;52.354;4.992;2023-09-19T10:36:57;25.50;47.10
68217;DHT22;55037;52.354;4.992;2023-09-19T10:39:25;25.50;47.20
68217;DHT22;55037;52.354;4.992;2023-09-19T10:41:55;25.50;47.20
68217;DHT22;55037;52.354;4.992;2023-09-19T10:44:26;25.50;47.20
68217;DHT22;55037;52.354;4.992;2023-09-19T10:46:57;25.50;47.00
68217;DHT22;55037;52.354;4.992;2023-09-19T10:49:25;25.50;47.10
68217;DHT22;55037;52.354;4.992;2023-09-19T10:51:55;25.50;47.20
68217;DHT22;55037;52.354;4.992;2023-09-19T10:54:29;25.60;47.30
68217;DHT22;55037;52.354;4.992;2023-09-19T10:56:59;25.50;47.50
68217;DHT22;55037;52.354;4.992;2023-09-19T10:59:27;25.60;47.60
68217;DHT22;55037;52.354;4.992;2023-09-19T11:02:16;25.60;47.60
68217;DHT22;55037;52.354;4.992;2023-09-19T11:04:44;25.60;47.50
68217;DHT22;55037;52.354;4.992;2023-09-19T11:07:15;25.70;47.70
68217;DHT22;55037;52.354;4.992;2023-09-19T11:09:53;25.70;47.70
68217;DHT22;55037;52.354;4.992;2023-09-19T11:15:10;25.70;47.60
68217;DHT22;55037;52.354;4.992;2023-09-19T11:17:59;25.80;48.80
68217;DHT22;55037;52.354;4.992;2023-09-19T11:20:27;25.80;47.80
68217;DHT22;55037;52.354;4.992;2023-09-19T11:23:17;25.80;47.90
68217;DHT22;55037;52.354;4.992;2023-09-19T11:25:45;25.80;47.90
68217;DHT22;55037;52.354;4.992;2023-09-19T11:28:28;25.80;48.90
68217;DHT22;55037;52.354;4.992;2023-09-19T11:30:57;25.90;48.00
68217;DHT22;55037;52.354;4.992;2023-09-19T11:33:32;25.90;47.90
68217;DHT22;55037;52.354;4.992;2023-09-19T11:36:15;25.90;47.80
68217;DHT22;55037;52.354;4.992;2023-09-19T11:46:34;25.90;48.00
68217;DHT22;55037;52.354;4.992;2023-09-19T11:49:09;25.90;48.00
68217;DHT22;55037;52.354;4.992;2023-09-19T11:51:46;25.90;48.00
68217;DHT22;55037;52.354;4.992;2023-09-19T11:54:18;25.80;48.30
68217;DHT22;55037;52.354;4.992;2023-09-19T11:56:52;25.80;48.40
68217;DHT22;55037;52.354;4.992;2023-09-19T11:59:22;25.80;48.30
68217;DHT22;55037;52.354;4.992;2023-09-19T12:02:06;25.80;48.30
68217;DHT22;55037;52.354;4.992;2023-09-19T12:04:41;25.80;48.40
68217;DHT22;55037;52.354;4.992;2023-09-19T12:07:12;25.80;48.40
68217;DHT22;55037;52.354;4.992;2023-09-19T12:09:49;25.80;48.50
68217;DHT22;55037;52.354;4.992;2023-09-19T12:12:25;25.80;48.50
68217;DHT22;55037;52.354;4.992;2023-09-19T12:14:57;25.80;48.60
68217;DHT22;55037;52.354;4.992;2023-09-19T12:17:46;25.80;48.60
68217;DHT22;55037;52.354;4.992;2023-09-19T12:20:14;25.80;48.60
68217;DHT22;55037;52.354;4.992;2023-09-19T12:22:43;25.80;48.60
68217;DHT22;55037;52.354;4.992;2023-09-19T12:25:11;25.80;48.70
68217;DHT22;55037;52.354;4.992;2023-09-19T12:27:47;25.70;48.50
68217;DHT22;55037;52.354;4.992;2023-09-19T12:30:16;25.80;48.90
68217;DHT22;55037;52.354;4.992;2023-09-19T12:32:48;25.70;48.90
68217;DHT22;55037;52.354;4.992;2023-09-19T12:35:31;25.80;49.10
68217;DHT22;55037;52.354;4.992;2023-09-19T12:38:03;25.80;49.10
68217;DHT22;55037;52.354;4.992;2023-09-19T12:40:32;25.70;50.10
68217;DHT22;55037;52.354;4.992;2023-09-19T12:43:01;25.70;49.30
68217;DHT22;55037;52.354;4.992;2023-09-19T12:45:32;25.70;49.30
68217;DHT22;55037;52.354;4.992;2023-09-19T12:48:23;25.70;49.50
68217;DHT22;55037;52.354;4.992;2023-09-19T12:51:08;25.80;49.50
68217;DHT22;55037;52.354;4.992;2023-09-19T12:53:45;25.70;49.40
68217;DHT22;55037;52.354;4.992;2023-09-19T12:56:15;25.70;49.40
68217;DHT22;55037;52.354;4.992;2023-09-19T12:58:54;25.70;49.40
68217;DHT22;55037;52.354;4.992;2023-09-19T13:01:23;25.70;49.40
68217;DHT22;55037;52.354;4.992;2023-09-19T13:04:13;25.70;49.30
68217;DHT22;55037;52.354;4.992;2023-09-19T13:06:49;25.70;49.30
68217;DHT22;55037;52.354;4.992;2023-09-19T13:09:19;25.80;49.40
68217;DHT22;55037;52.354;4.992;2023-09-19T13:11:48;25.70;49.30
68217;DHT22;55037;52.354;4.992;2023-09-19T13:19:43;25.70;49.30
68217;DHT22;55037;52.354;4.992;2023-09-19T13:22:39;25.80;49.40
68217;DHT22;55037;52.354;4.992;2023-09-19T13:25:19;25.80;49.90
68217;DHT22;55037;52.354;4.992;2023-09-19T13:27:56;25.70;49.80
68217;DHT22;55037;52.354;4.992;2023-09-19T13:30:25;25.70;49.70
68217;DHT22;55037;52.354;4.992;2023-09-19T13:33:08;25.70;49.80
68217;DHT22;55037;52.354;4.992;2023-09-19T13:35:39;25.70;49.70
68217;DHT22;55037;52.354;4.992;2023-09-19T13:38:08;25.70;49.80
68217;DHT22;55037;52.354;4.992;2023-09-19T13:40:39;25.70;49.90
68217;DHT22;55037;52.354;4.992;2023-09-19T13:43:10;25.70;50.00
68217;DHT22;55037;52.354;4.992;2023-09-19T13:45:38;25.70;50.00
68217;DHT22;55037;52.354;4.992;2023-09-19T13:48:09;25.70;50.00
68217;DHT22;55037;52.354;4.992;2023-09-19T13:50:38;25.70;49.90
68217;DHT22;55037;52.354;4.992;2023-09-19T13:53:09;25.70;49.90
68217;DHT22;55037;52.354;4.992;2023-09-19T13:55:39;25.70;50.00
68217;DHT22;55037;52.354;4.992;2023-09-19T13:58:07;25.70;50.00
68217;DHT22;55037;52.354;4.992;2023-09-19T14:00:38;25.70;50.00
68217;DHT22;55037;52.354;4.992;2023-09-19T14:03:05;25.70;50.10
68217;DHT22;55037;52.354;4.992;2023-09-19T14:05:33;25.70;50.10
68217;DHT22;55037;52.354;4.992;2023-09-19T14:08:01;25.70;50.10
68217;DHT22;55037;52.354;4.992;2023-09-19T14:10:30;25.70;50.20
68217;DHT22;55037;52.354;4.992;2023-09-19T14:12:58;25.70;50.20
68217;DHT22;55037;52.354;4.992;2023-09-19T14:15:27;25.70;50.40
68217;DHT22;55037;52.354;4.992;2023-09-19T14:17:58;25.70;51.10
68217;DHT22;55037;52.354;4.992;2023-09-19T14:20:28;25.80;51.00
68217;DHT22;55037;52.354;4.992;2023-09-19T14:22:56;25.80;51.40
68217;DHT22;55037;52.354;4.992;2023-09-19T14:25:26;25.80;51.20
68217;DHT22;55037;52.354;4.992;2023-09-19T14:27:53;25.80;51.30
68217;DHT22;55037;52.354;4.992;2023-09-19T14:30:20;25.90;51.30
68217;DHT22;55037;52.354;4.992;2023-09-19T14:32:48;25.90;51.50
68217;DHT22;55037;52.354;4.992;2023-09-19T14:35:16;25.90;51.30
68217;DHT22;55037;52.354;4.992;2023-09-19T14:37:43;25.90;51.20
68217;DHT22;55037;52.354;4.992;2023-09-19T14:40:12;25.90;52.00
68217;DHT22;55037;52.354;4.992;2023-09-19T14:42:43;25.90;51.00
68217;DHT22;55037;52.354;4.992;2023-09-19T14:45:12;25.90;51.00
68217;DHT22;55037;52.354;4.992;2023-09-19T14:47:42;25.90;51.10
68217;DHT22;55037;52.354;4.992;2023-09-19T14:50:09;25.90;51.00
68217;DHT22;55037;52.354;4.992;2023-09-19T14:52:37;25.90;50.90
68217;DHT22;55037;52.354;4.992;2023-09-19T14:55:07;25.80;51.00
68217;DHT22;55037;52.354;4.992;2023-09-19T14:57:36;25.80;51.00
68217;DHT22;55037;52.354;4.992;2023-09-19T15:00:07;25.80;51.10
68217;DHT22;55037;52.354;4.992;2023-09-19T15:02:39;25.80;51.00
68217;DHT22;55037;52.354;4.992;2023-09-19T15:05:12;25.80;51.00
68217;DHT22;55037;52.354;4.992;2023-09-19T15:07:41;25.70;50.90
68217;DHT22;55037;52.354;4.992;2023-09-19T15:10:09;25.70;51.10
68217;DHT22;55037;52.354;4.992;2023-09-19T15:12:37;25.70;51.30
68217;DHT22;55037;52.354;4.992;2023-09-19T15:15:07;25.70;51.60
68217;DHT22;55037;52.354;4.992;2023-09-19T15:17:38;25.70;51.60
68217;DHT22;55037;52.354;4.992;2023-09-19T15:20:07;25.70;51.90
68217;DHT22;55037;52.354;4.992;2023-09-19T15:22:34;25.70;53.00
68217;DHT22;55037;52.354;4.992;2023-09-19T15:25:02;25.70;53.00
68217;DHT22;55037;52.354;4.992;2023-09-19T15:27:31;25.80;53.00
68217;DHT22;55037;52.354;4.992;2023-09-19T15:30:00;25.80;53.00
68217;DHT22;55037;52.354;4.992;2023-09-19T15:32:29;25.80;53.00
68217;DHT22;55037;52.354;4.992;2023-09-19T15:34:57;25.80;53.00
68217;DHT22;55037;52.354;4.992;2023-09-19T15:37:24;25.80;53.10
68217;DHT22;55037;52.354;4.992;2023-09-19T15:39:53;25.80;53.00
68217;DHT22;55037;52.354;4.992;2023-09-19T15:42:20;25.80;52.70
68217;DHT22;55037;52.354;4.992;2023-09-19T15:50:04;25.30;48.80
68217;DHT22;55037;52.354;4.992;2023-09-19T15:52:31;23.40;56.90
68217;DHT22;55037;52.354;4.992;2023-09-19T15:54:58;21.60;66.80
68217;DHT22;55037;52.354;4.992;2023-09-19T15:57:26;20.50;74.50
68217;DHT22;55037;52.354;4.992;2023-09-19T15:59:53;19.60;80.50
68217;DHT22;55037;52.354;4.992;2023-09-19T16:02:23;19.00;85.50
68217;DHT22;55037;52.354;4.992;2023-09-19T16:04:54;18.60;88.20
68217;DHT22;55037;52.354;4.992;2023-09-19T16:07:25;18.50;90.20
68217;DHT22;55037;52.354;4.992;2023-09-19T16:09:53;18.30;90.80
68217;DHT22;55037;52.354;4.992;2023-09-19T16:12:20;18.20;91.70
68217;DHT22;55037;52.354;4.992;2023-09-19T16:14:47;18.00;92.30
68217;DHT22;55037;52.354;4.992;2023-09-19T16:17:16;17.90;93.10
68217;DHT22;55037;52.354;4.992;2023-09-19T16:19:43;17.80;93.40
68217;DHT22;55037;52.354;4.992;2023-09-19T16:22:11;17.80;93.90
68217;DHT22;55037;52.354;4.992;2023-09-19T16:24:38;17.70;94.40
68217;DHT22;55037;52.354;4.992;2023-09-19T16:27:06;17.60;94.80
68217;DHT22;55037;52.354;4.992;2023-09-19T16:29:33;17.50;95.80
68217;DHT22;55037;52.354;4.992;2023-09-19T16:32:00;17.50;95.90
68217;DHT22;55037;52.354;4.992;2023-09-19T16:34:28;17.40;96.60